Time;durP1;ratioP1;P1;durP2;ratioP2;P2;SDS_P1;SDS_P2;PMS_P1;PMS_P2;Temp;Humidity;BMP_temperature;BMP_pressure;BME280_temperature;BME280_humidity;BME280_pressure;Samples;Min_cycle;Max_cycle;Signal;HPM_P1;HPM_P2
2024/02/13 00:00:46;;;;;;;48.65;24.38;;;5.00;99.90;;;;;;4961544;28;20051;-72
2024/02/13 00:03:14;;;;;;;47.28;23.67;;;5.00;99.90;;;;;;4951498;28;20113;-71
2024/02/13 00:05:42;;;;;;;61.90;27.15;;;4.90;99.90;;;;;;4947793;28;20055;-71
2024/02/13 00:08:12;;;;;;;47.80;25.38;;;5.00;99.90;;;;;;4940672;28;20082;-71
2024/02/13 00:10:40;;;;;;;51.58;25.88;;;5.00;99.90;;;;;;4945371;28;20499;-71
2024/02/13 00:13:07;;;;;;;53.92;25.08;;;5.00;99.90;;;;;;4929522;28;20055;-72
2024/02/13 00:15:34;;;;;;;55.55;26.83;;;5.10;99.90;;;;;;4931017;28;20463;-71
2024/02/13 00:18:03;;;;;;;47.65;24.70;;;5.10;99.90;;;;;;4947951;28;20047;-71
2024/02/13 00:20:30;;;;;;;56.85;25.10;;;5.10;99.90;;;;;;4932027;28;20035;-72
2024/02/13 00:22:59;;;;;;;49.83;22.85;;;5.10;99.90;;;;;;4937140;28;20048;-71
2024/02/13 00:25:28;;;;;;;42.60;22.45;;;5.10;99.90;;;;;;4937772;28;20680;-72
2024/02/13 00:27:55;;;;;;;45.75;22.58;;;5.10;99.90;;;;;;4935222;28;20513;-71
2024/02/13 00:30:23;;;;;;;49.38;24.83;;;5.10;99.90;;;;;;4930811;28;20448;-72
2024/02/13 00:32:50;;;;;;;49.13;24.42;;;5.10;99.90;;;;;;4947715;28;21232;-72
2024/02/13 00:35:17;;;;;;;49.25;24.05;;;5.10;99.90;;;;;;4937700;28;20625;-71
2024/02/13 00:37:44;;;;;;;42.65;21.23;;;5.20;99.90;;;;;;4952453;28;20060;-71
2024/02/13 00:40:11;;;;;;;46.45;24.15;;;5.10;99.90;;;;;;4952185;28;20044;-72
2024/02/13 00:42:37;;;;;;;56.05;25.88;;;5.10;99.90;;;;;;4961514;28;20050;-71
2024/02/13 00:45:07;;;;;;;52.45;25.90;;;5.10;99.90;;;;;;4967511;28;20534;-71
2024/02/13 00:47:34;;;;;;;58.45;27.15;;;5.10;99.90;;;;;;4935410;28;20048;-71
2024/02/13 00:50:02;;;;;;;54.75;29.10;;;5.10;99.90;;;;;;4928199;28;20051;-72
2024/02/13 00:52:29;;;;;;;55.45;28.38;;;5.10;99.90;;;;;;4967602;28;20105;-71
2024/02/13 00:54:58;;;;;;;56.80;29.23;;;5.00;99.90;;;;;;4943632;28;20049;-71
2024/02/13 00:57:25;;;;;;;57.63;28.27;;;5.10;99.90;;;;;;4957698;28;20142;-71
2024/02/13 00:59:52;;;;;;;62.00;31.80;;;5.00;99.90;;;;;;4953672;28;20043;-70
2024/02/13 01:02:19;;;;;;;63.25;30.85;;;5.10;99.90;;;;;;4962026;28;20047;-71
2024/02/13 01:04:48;;;;;;;56.63;27.98;;;5.00;99.90;;;;;;4946410;28;20446;-71
2024/02/13 01:07:17;;;;;;;48.83;26.02;;;5.00;99.90;;;;;;4938828;28;20043;-73
2024/02/13 01:09:44;;;;;;;53.78;24.52;;;5.00;99.90;;;;;;4956020;28;21166;-71
2024/02/13 01:12:10;;;;;;;46.33;22.52;;;5.00;99.90;;;;;;4935081;28;20039;-73
2024/02/13 01:14:37;;;;;;;41.75;21.27;;;5.00;99.90;;;;;;4937735;28;20039;-71
2024/02/13 01:17:04;;;;;;;38.25;19.40;;;5.00;99.90;;;;;;4931254;28;20460;-70
2024/02/13 01:19:31;;;;;;;36.72;17.10;;;5.00;99.90;;;;;;4926533;28;20214;-72
2024/02/13 01:21:58;;;;;;;31.30;18.70;;;5.00;99.90;;;;;;4963189;28;20115;-72
2024/02/13 01:24:26;;;;;;;46.15;20.30;;;5.00;99.90;;;;;;4944595;28;20547;-73
2024/02/13 01:26:54;;;;;;;38.38;20.20;;;5.00;99.90;;;;;;4948161;28;20133;-73
2024/02/13 01:29:20;;;;;;;42.85;20.23;;;5.10;99.90;;;;;;4972220;28;20078;-71
2024/02/13 01:31:47;;;;;;;40.95;21.13;;;5.10;99.90;;;;;;4941907;28;20125;-71
2024/02/13 01:34:14;;;;;;;50.53;22.40;;;5.00;99.90;;;;;;4932618;28;20130;-72
2024/02/13 01:36:41;;;;;;;45.78;23.38;;;5.00;99.90;;;;;;4930391;28;20047;-72
2024/02/13 01:39:09;;;;;;;56.17;24.27;;;5.10;99.90;;;;;;4926486;28;20079;-72
2024/02/13 01:41:36;;;;;;;52.78;27.02;;;5.10;99.90;;;;;;4940365;28;20042;-72
2024/02/13 01:44:06;;;;;;;52.22;28.48;;;5.00;99.90;;;;;;4943761;28;20059;-71
2024/02/13 01:46:34;;;;;;;60.17;28.45;;;5.00;99.90;;;;;;4945335;28;20150;-71
2024/02/13 01:49:03;;;;;;;59.25;30.58;;;4.90;99.90;;;;;;4951746;28;20035;-71
2024/02/13 01:51:34;;;;;;;62.58;31.45;;;5.00;99.90;;;;;;4945925;28;20084;-71
2024/02/13 01:54:04;;;;;;;65.85;31.85;;;5.00;99.90;;;;;;4950104;28;20687;-71
2024/02/13 01:56:33;;;;;;;59.50;33.85;;;5.00;99.90;;;;;;4943633;28;20058;-72
2024/02/13 01:59:01;;;;;;;58.60;31.58;;;5.00;99.90;;;;;;4941545;28;20050;-71
2024/02/13 02:01:32;;;;;;;60.50;32.80;;;5.00;99.90;;;;;;4948350;28;20054;-70
2024/02/13 02:04:00;;;;;;;59.55;30.58;;;5.00;99.90;;;;;;4944431;28;20188;-71
2024/02/13 02:06:27;;;;;;;54.45;31.20;;;5.00;99.90;;;;;;4948139;28;20132;-71
2024/02/13 02:08:55;;;;;;;66.68;30.30;;;4.90;99.90;;;;;;4939669;28;20051;-71
2024/02/13 02:11:23;;;;;;;53.85;30.23;;;4.90;99.90;;;;;;4943962;28;20051;-71
2024/02/13 02:13:52;;;;;;;57.03;29.10;;;4.90;99.90;;;;;;4919906;28;20074;-71
2024/02/13 02:16:19;;;;;;;55.97;29.58;;;5.00;99.90;;;;;;4928355;28;20130;-71
2024/02/13 02:18:46;;;;;;;54.92;28.08;;;5.00;99.90;;;;;;4929749;28;20057;-71
2024/02/13 02:21:14;;;;;;;58.28;30.38;;;5.00;99.90;;;;;;4927764;28;20250;-72
2024/02/13 02:23:41;;;;;;;53.55;29.02;;;5.00;99.90;;;;;;4925500;28;20055;-71
2024/02/13 02:26:08;;;;;;;61.30;29.95;;;4.90;99.90;;;;;;4935851;28;20047;-71
2024/02/13 02:28:35;;;;;;;58.50;32.15;;;4.90;99.90;;;;;;4926291;28;20052;-70
2024/02/13 02:31:01;;;;;;;65.10;32.97;;;5.00;99.90;;;;;;4926204;28;20143;-72
2024/02/13 02:33:28;;;;;;;62.53;31.13;;;5.00;99.90;;;;;;4926825;28;20043;-71
2024/02/13 02:35:55;;;;;;;65.07;31.70;;;5.00;99.90;;;;;;4932467;28;20553;-72
2024/02/13 02:38:23;;;;;;;54.92;27.25;;;5.00;99.90;;;;;;4946700;28;20115;-73
2024/02/13 02:40:52;;;;;;;49.35;29.00;;;5.00;99.90;;;;;;4938582;28;20051;-72
2024/02/13 02:43:19;;;;;;;50.83;26.77;;;4.90;99.90;;;;;;4947358;28;20055;-70
2024/02/13 02:45:46;;;;;;;52.17;29.15;;;4.90;99.90;;;;;;4933695;28;21581;-72
2024/02/13 02:48:14;;;;;;;52.97;30.45;;;4.80;99.90;;;;;;4950044;28;20062;-71
2024/02/13 02:50:42;;;;;;;56.08;31.95;;;4.80;99.90;;;;;;4968235;28;20043;-73
2024/02/13 02:53:09;;;;;;;56.45;31.10;;;4.80;99.90;;;;;;4950914;28;20055;-69
2024/02/13 02:55:36;;;;;;;59.67;31.80;;;4.80;99.90;;;;;;4944895;28;20686;-72
2024/02/13 02:58:03;;;;;;;58.67;31.67;;;4.80;99.90;;;;;;4930057;28;20530;-72
2024/02/13 03:00:31;;;;;;;68.28;34.08;;;4.70;99.90;;;;;;4935727;28;20134;-73
2024/02/13 03:02:57;;;;;;;69.20;32.97;;;4.70;99.90;;;;;;4943809;28;20115;-72
2024/02/13 03:05:25;;;;;;;68.80;34.45;;;4.60;99.90;;;;;;4950082;28;20708;-72
2024/02/13 03:07:53;;;;;;;66.15;32.40;;;4.50;99.90;;;;;;4945554;28;20550;-71
2024/02/13 03:10:20;;;;;;;74.20;33.42;;;4.50;99.90;;;;;;4945448;28;20741;-73
2024/02/13 03:12:47;;;;;;;79.32;37.35;;;4.50;99.90;;;;;;4942489;28;20113;-71
2024/02/13 03:15:14;;;;;;;76.82;34.72;;;4.50;99.90;;;;;;4947826;28;20027;-72
2024/02/13 03:17:42;;;;;;;72.28;35.35;;;4.60;99.90;;;;;;4938015;28;20043;-71
2024/02/13 03:20:10;;;;;;;77.40;36.25;;;4.60;99.90;;;;;;4951017;28;20517;-71
2024/02/13 03:22:38;;;;;;;78.05;36.65;;;4.60;99.90;;;;;;4944671;28;20037;-71
2024/02/13 03:25:06;;;;;;;64.15;31.67;;;4.60;99.90;;;;;;4947589;28;20038;-70
2024/02/13 03:27:33;;;;;;;72.63;35.95;;;4.60;99.90;;;;;;4943659;28;20113;-70
2024/02/13 03:30:02;;;;;;;66.28;31.80;;;4.60;99.90;;;;;;4945322;28;20725;-73
2024/02/13 03:32:29;;;;;;;64.28;29.60;;;4.50;99.90;;;;;;4928650;28;20047;-72
2024/02/13 03:34:56;;;;;;;62.28;30.10;;;4.50;99.90;;;;;;4924263;28;20074;-71
2024/02/13 03:37:23;;;;;;;74.72;32.08;;;4.40;99.90;;;;;;4947046;28;20047;-71
2024/02/13 03:39:49;;;;;;;68.90;31.77;;;4.40;99.90;;;;;;4945522;28;20501;-70
2024/02/13 03:42:16;;;;;;;90.95;32.33;;;4.40;99.90;;;;;;4949958;28;20042;-72
2024/02/13 03:44:45;;;;;;;76.93;32.08;;;4.40;99.90;;;;;;4965182;28;20042;-72
2024/02/13 03:47:12;;;;;;;72.53;30.65;;;4.30;99.90;;;;;;4946361;28;20050;-72
2024/02/13 03:49:40;;;;;;;73.65;30.50;;;4.30;99.90;;;;;;4943344;28;20110;-71
2024/02/13 03:52:09;;;;;;;67.93;29.08;;;4.30;99.90;;;;;;4944402;28;20039;-72
2024/02/13 03:54:36;;;;;;;70.90;28.67;;;4.30;99.90;;;;;;4963550;28;20043;-72
2024/02/13 03:57:03;;;;;;;65.80;27.67;;;4.20;99.90;;;;;;4957268;28;20120;-73
2024/02/13 03:59:30;;;;;;;68.90;28.40;;;4.30;99.90;;;;;;4944799;28;20385;-71
2024/02/13 04:01:58;;;;;;;63.42;25.48;;;4.20;99.90;;;;;;4925496;28;20047;-73
2024/02/13 04:04:25;;;;;;;58.90;27.10;;;4.20;99.90;;;;;;4930369;28;20047;-72
2024/02/13 04:06:52;;;;;;;58.35;25.30;;;4.20;99.90;;;;;;4927295;28;20043;-72
2024/02/13 04:09:19;;;;;;;53.80;24.25;;;4.10;99.90;;;;;;4928209;28;20047;-73
2024/02/13 04:11:46;;;;;;;55.00;23.58;;;4.10;99.90;;;;;;4928859;28;20044;-71
2024/02/13 04:14:13;;;;;;;46.05;21.65;;;4.10;99.90;;;;;;4944011;28;20060;-72
2024/02/13 04:16:44;;;;;;;45.63;23.15;;;4.10;99.90;;;;;;4961401;28;20368;-72
2024/02/13 04:19:14;;;;;;;50.65;22.65;;;4.00;99.90;;;;;;4963464;28;20047;-73
2024/02/13 04:21:41;;;;;;;43.25;22.30;;;4.00;99.90;;;;;;4951335;28;20039;-72
2024/02/13 04:24:08;;;;;;;49.10;20.77;;;3.90;99.90;;;;;;4945821;28;20107;-73
2024/02/13 04:26:39;;;;;;;37.60;20.20;;;4.00;99.90;;;;;;4948357;28;20035;-71
2024/02/13 04:29:07;;;;;;;36.75;19.70;;;4.00;99.90;;;;;;4943514;28;20048;-71
2024/02/13 04:31:35;;;;;;;39.58;21.02;;;4.00;99.90;;;;;;4945831;28;20055;-71
2024/02/13 04:34:02;;;;;;;34.45;17.80;;;4.00;99.90;;;;;;4945798;28;20869;-71
2024/02/13 04:36:31;;;;;;;35.15;20.35;;;4.00;99.90;;;;;;4964123;28;20562;-72
2024/02/13 04:38:58;;;;;;;33.25;18.77;;;4.00;99.90;;;;;;4945020;28;20046;-73
2024/02/13 04:41:25;;;;;;;35.10;19.17;;;4.00;99.90;;;;;;4950022;28;20486;-73
2024/02/13 04:43:54;;;;;;;32.00;17.38;;;3.90;99.90;;;;;;4948755;28;20458;-71
2024/02/13 04:46:24;;;;;;;34.80;19.77;;;3.90;99.90;;;;;;4951691;28;20051;-71
2024/02/13 04:48:52;;;;;;;37.22;20.90;;;3.90;99.90;;;;;;4949121;28;20490;-71
2024/02/13 04:51:20;;;;;;;38.08;21.40;;;4.00;99.90;;;;;;4976437;28;20058;-71
2024/02/13 04:53:47;;;;;;;30.88;18.60;;;3.90;99.90;;;;;;4955093;28;20054;-71
2024/02/13 04:56:15;;;;;;;36.53;20.02;;;3.80;99.90;;;;;;4952381;28;20047;-70
2024/02/13 04:58:43;;;;;;;33.97;19.20;;;3.80;99.90;;;;;;4961761;28;20054;-71
2024/02/13 05:01:13;;;;;;;31.77;18.83;;;3.80;99.90;;;;;;4951536;28;20043;-70
2024/02/13 05:09:03;;;;;;;38.78;19.00;;;3.70;99.90;;;;;;4941418;28;20067;-76
2024/02/13 05:11:31;;;;;;;37.72;20.58;;;3.60;99.90;;;;;;4950494;28;21564;-73
2024/02/13 05:14:02;;;;;;;30.77;17.75;;;3.60;99.90;;;;;;4947245;28;20047;-71
2024/02/13 05:16:29;;;;;;;37.35;20.98;;;3.60;99.90;;;;;;4950537;28;20047;-71
2024/02/13 05:18:56;;;;;;;41.35;20.73;;;3.50;99.90;;;;;;4948163;28;20069;-71
2024/02/13 05:21:24;;;;;;;39.47;22.10;;;3.50;99.90;;;;;;4946717;28;20528;-71
2024/02/13 05:23:50;;;;;;;38.08;20.98;;;3.50;99.90;;;;;;4942859;28;20043;-71
2024/02/13 05:26:17;;;;;;;39.13;21.85;;;3.40;99.90;;;;;;4945447;28;20058;-71
2024/02/13 05:28:45;;;;;;;38.78;21.23;;;3.40;99.90;;;;;;4940259;28;20078;-71
2024/02/13 05:31:12;;;;;;;41.22;22.42;;;3.40;99.90;;;;;;4947825;28;20284;-71
2024/02/13 05:33:39;;;;;;;45.65;23.60;;;3.30;99.90;;;;;;4949778;28;20055;-71
2024/02/13 05:36:09;;;;;;;37.80;21.60;;;3.30;99.90;;;;;;4964195;28;20058;-71
2024/02/13 05:38:45;;;;;;;37.25;22.48;;;3.30;99.90;;;;;;4953484;28;20826;-71
2024/02/13 05:41:12;;;;;;;49.05;23.65;;;3.20;99.90;;;;;;4949138;28;20035;-71
2024/02/13 05:43:43;;;;;;;38.13;24.50;;;3.30;99.90;;;;;;4946902;28;20053;-71
2024/02/13 05:46:09;;;;;;;42.30;24.17;;;3.20;99.90;;;;;;4947433;28;20446;-71
2024/02/13 05:48:37;;;;;;;48.60;22.45;;;3.20;99.90;;;;;;4949419;28;20082;-70
2024/02/13 05:51:04;;;;;;;37.75;22.45;;;3.20;99.90;;;;;;4947685;28;20118;-71
2024/02/13 05:53:31;;;;;;;35.53;20.05;;;3.10;99.90;;;;;;4944598;28;20038;-71
2024/02/13 05:55:59;;;;;;;26.77;17.63;;;3.10;99.90;;;;;;4947355;28;20175;-71
2024/02/13 05:58:27;;;;;;;31.08;19.20;;;3.10;99.90;;;;;;4943892;28;20138;-71
2024/02/13 06:00:57;;;;;;;28.23;19.00;;;3.20;99.90;;;;;;4943078;28;20071;-71
2024/02/13 06:03:24;;;;;;;35.20;18.27;;;3.20;99.90;;;;;;4954912;28;21567;-71
2024/02/13 06:05:55;;;;;;;35.35;20.63;;;3.20;99.90;;;;;;4949066;28;20039;-71
2024/02/13 06:08:22;;;;;;;33.40;20.00;;;3.20;99.90;;;;;;4962290;28;20053;-71
2024/02/13 06:10:50;;;;;;;35.85;19.15;;;3.10;99.90;;;;;;4944449;28;20067;-71
2024/02/13 06:13:16;;;;;;;35.03;19.98;;;3.10;99.90;;;;;;4951813;28;20054;-71
2024/02/13 06:15:44;;;;;;;32.53;19.48;;;3.10;99.90;;;;;;4950087;28;20046;-71
2024/02/13 06:18:11;;;;;;;38.15;20.13;;;3.00;99.90;;;;;;4945861;28;20042;-71
2024/02/13 06:20:39;;;;;;;38.17;21.08;;;2.90;99.90;;;;;;4944596;28;20117;-71
2024/02/13 06:23:06;;;;;;;40.75;21.55;;;2.80;99.90;;;;;;4932763;28;20055;-71
2024/02/13 06:25:33;;;;;;;41.80;20.15;;;2.80;99.90;;;;;;4933565;28;20046;-73
2024/02/13 06:28:01;;;;;;;36.75;21.17;;;2.70;99.90;;;;;;4942985;28;20504;-73
2024/02/13 06:30:28;;;;;;;36.08;21.15;;;2.70;99.90;;;;;;4948620;28;20042;-71
2024/02/13 06:32:55;;;;;;;42.67;22.20;;;2.60;99.90;;;;;;4945569;28;20058;-73
2024/02/13 06:35:22;;;;;;;44.35;23.05;;;2.60;99.90;;;;;;4944879;28;20055;-73
2024/02/13 06:37:49;;;;;;;41.92;21.48;;;2.60;99.90;;;;;;4938269;28;20095;-72
2024/02/13 06:40:16;;;;;;;39.85;23.13;;;2.60;99.90;;;;;;4942842;28;20506;-73
2024/02/13 06:42:43;;;;;;;42.47;23.58;;;2.60;99.90;;;;;;4949491;28;20054;-72
2024/02/13 06:45:10;;;;;;;49.58;25.67;;;2.60;99.90;;;;;;4959660;28;20110;-73
2024/02/13 06:47:38;;;;;;;46.50;24.92;;;2.50;99.90;;;;;;4923062;28;20050;-69
2024/02/13 06:50:11;;;;;;;42.78;24.83;;;2.50;99.90;;;;;;4927788;28;20057;-73
2024/02/13 06:52:40;;;;;;;48.05;25.55;;;2.40;99.90;;;;;;4929410;28;20047;-71
2024/02/13 06:55:08;;;;;;;50.00;25.67;;;2.50;99.90;;;;;;4928644;28;20046;-72
2024/02/13 06:57:35;;;;;;;44.25;26.20;;;2.40;99.90;;;;;;4946184;28;20606;-71
2024/02/13 07:00:07;;;;;;;48.25;27.42;;;2.50;99.90;;;;;;4939459;28;20049;-70
2024/02/13 07:02:35;;;;;;;48.05;30.65;;;2.50;99.90;;;;;;4944680;28;20047;-71
2024/02/13 07:05:04;;;;;;;48.05;29.27;;;2.50;99.90;;;;;;4926552;28;20043;-71
2024/02/13 07:07:30;;;;;;;56.78;29.17;;;2.60;99.90;;;;;;4940674;28;20075;-71
2024/02/13 07:10:12;;;;;;;59.05;31.33;;;2.60;99.90;;;;;;4939892;28;20114;-72
2024/02/13 07:12:40;;;;;;;59.42;32.45;;;2.70;99.90;;;;;;4923761;28;20439;-71
2024/02/13 07:15:07;;;;;;;58.85;30.58;;;2.70;99.90;;;;;;4923510;28;20044;-71
2024/02/13 07:17:34;;;;;;;48.65;29.52;;;2.80;99.90;;;;;;4923344;28;20054;-71
2024/02/13 07:20:18;;;;;;;49.70;27.50;;;2.90;99.90;;;;;;4922688;28;20040;-71
2024/02/13 07:22:46;;;;;;;49.10;28.25;;;2.90;99.90;;;;;;4922132;28;20346;-71
2024/02/13 07:25:14;;;;;;;51.67;28.83;;;3.00;99.90;;;;;;4924558;28;20126;-71
2024/02/13 07:27:41;;;;;;;56.10;27.80;;;3.00;99.90;;;;;;4940231;28;20047;-71
2024/02/13 07:30:10;;;;;;;46.90;27.83;;;3.10;99.90;;;;;;4944282;28;20046;-72
2024/02/13 07:32:39;;;;;;;51.45;27.80;;;3.10;99.90;;;;;;4930186;28;20075;-72
2024/02/13 07:35:06;;;;;;;44.97;28.33;;;3.20;99.90;;;;;;4925688;28;20114;-71
2024/02/13 07:37:35;;;;;;;42.63;25.88;;;3.30;99.90;;;;;;4928456;28;20610;-72
2024/02/13 07:40:03;;;;;;;45.92;25.27;;;3.40;99.90;;;;;;4924445;28;20055;-72
2024/02/13 07:42:30;;;;;;;48.05;27.73;;;3.50;99.90;;;;;;4927887;28;21035;-71
2024/02/13 07:44:58;;;;;;;38.30;25.73;;;3.60;99.90;;;;;;4943076;28;20063;-72
2024/02/13 07:47:26;;;;;;;42.90;26.73;;;3.70;99.90;;;;;;4950165;28;20062;-72
2024/02/13 07:49:59;;;;;;;47.30;26.60;;;3.80;99.90;;;;;;4946380;28;20051;-72
2024/02/13 07:52:27;;;;;;;45.03;28.20;;;3.80;99.90;;;;;;4957403;28;20039;-71
2024/02/13 07:54:54;;;;;;;45.38;28.63;;;3.90;99.90;;;;;;4938410;28;20047;-71
2024/02/13 07:57:21;;;;;;;48.65;29.75;;;3.90;99.90;;;;;;4940941;28;20384;-70
2024/02/13 07:59:54;;;;;;;45.83;30.23;;;3.90;99.90;;;;;;4922247;28;20063;-72
2024/02/13 08:02:25;;;;;;;56.60;33.75;;;4.00;99.90;;;;;;4941642;28;20042;-72
2024/02/13 08:04:52;;;;;;;47.85;32.08;;;4.10;99.90;;;;;;4926696;28;20523;-72
2024/02/13 08:07:19;;;;;;;47.92;32.25;;;4.20;99.90;;;;;;4942173;28;20146;-72
2024/02/13 08:09:46;;;;;;;50.47;33.65;;;4.20;99.90;;;;;;4948061;28;20043;-72
2024/02/13 08:12:15;;;;;;;47.05;28.95;;;4.30;99.90;;;;;;4944987;28;20043;-72
2024/02/13 08:14:42;;;;;;;61.22;35.13;;;4.30;99.90;;;;;;4944216;28;20046;-71
2024/02/13 08:17:10;;;;;;;58.33;35.42;;;4.40;99.90;;;;;;4947276;28;20043;-72
2024/02/13 08:19:40;;;;;;;47.92;32.60;;;4.40;99.90;;;;;;4946811;28;20046;-72
2024/02/13 08:22:08;;;;;;;46.33;32.40;;;4.50;99.90;;;;;;4939024;28;20049;-72
2024/02/13 08:24:36;;;;;;;57.67;31.02;;;4.50;99.90;;;;;;4944710;28;20205;-72
2024/02/13 08:27:03;;;;;;;48.33;33.60;;;4.60;99.90;;;;;;4943715;28;20129;-71
2024/02/13 08:29:30;;;;;;;50.55;33.05;;;4.60;99.90;;;;;;4940634;28;20051;-72
2024/02/13 08:31:58;;;;;;;68.10;35.97;;;4.70;99.90;;;;;;4948413;28;20035;-72
2024/02/13 08:34:25;;;;;;;46.00;31.13;;;4.80;99.90;;;;;;4950721;28;20075;-72
2024/02/13 08:36:54;;;;;;;42.92;31.27;;;4.90;99.90;;;;;;4936243;28;20732;-72
2024/02/13 08:39:20;;;;;;;68.45;34.35;;;5.10;99.90;;;;;;4928368;28;20431;-72
2024/02/13 08:41:47;;;;;;;42.90;32.17;;;5.20;99.90;;;;;;4930151;28;20597;-72
2024/02/13 08:44:16;;;;;;;42.17;32.17;;;5.30;99.90;;;;;;4928786;28;20059;-73
2024/02/13 08:46:43;;;;;;;43.03;34.60;;;5.40;99.90;;;;;;4927872;28;20699;-72
2024/02/13 08:49:11;;;;;;;71.32;37.60;;;5.50;99.90;;;;;;4929118;28;20043;-72
2024/02/13 08:51:38;;;;;;;45.28;33.63;;;5.40;99.90;;;;;;4942713;28;20047;-72
2024/02/13 08:54:06;;;;;;;37.92;33.80;;;5.50;99.90;;;;;;4931600;28;20517;-72
2024/02/13 08:56:33;;;;;;;35.28;31.02;;;5.50;99.90;;;;;;4948643;28;20114;-72
2024/02/13 08:59:03;;;;;;;39.75;34.33;;;5.50;99.90;;;;;;4967514;28;20076;-73
2024/02/13 09:01:57;;;;;;;40.78;32.95;;;5.50;99.90;;;;;;4935372;28;20055;-72
2024/02/13 09:04:25;;;;;;;35.78;32.17;;;5.60;99.90;;;;;;4929159;28;20047;-73
2024/02/13 09:06:52;;;;;;;34.65;31.05;;;5.60;99.90;;;;;;4930129;28;20075;-72
2024/02/13 09:09:19;;;;;;;33.28;30.05;;;5.60;99.90;;;;;;4926442;28;20047;-72
2024/02/13 09:11:46;;;;;;;34.13;30.70;;;5.70;99.90;;;;;;4924518;28;20044;-72
2024/02/13 09:14:13;;;;;;;40.00;35.53;;;5.80;99.90;;;;;;4932649;28;20074;-72
2024/02/13 09:16:40;;;;;;;37.67;33.80;;;5.90;99.90;;;;;;4938205;28;20047;-72
2024/02/13 09:19:07;;;;;;;31.88;29.27;;;6.00;99.90;;;;;;4965262;28;20055;-72
2024/02/13 09:21:34;;;;;;;34.58;31.88;;;6.00;99.90;;;;;;4948920;28;20141;-72
2024/02/13 09:24:03;;;;;;;33.65;30.65;;;6.10;99.90;;;;;;4966890;28;20048;-72
2024/02/13 09:26:29;;;;;;;31.77;29.08;;;6.20;99.90;;;;;;4941672;28;20070;-72
2024/02/13 09:28:58;;;;;;;34.53;31.77;;;6.30;99.90;;;;;;4945969;28;20133;-72
2024/02/13 09:31:25;;;;;;;36.97;33.97;;;6.70;99.90;;;;;;4942004;28;20510;-72
2024/02/13 09:33:51;;;;;;;34.40;31.45;;;6.80;99.90;;;;;;4950930;28;20050;-72
2024/02/13 09:36:21;;;;;;;34.20;31.05;;;6.80;99.90;;;;;;4943690;28;20043;-72
2024/02/13 09:38:47;;;;;;;35.20;32.63;;;6.70;99.90;;;;;;4959991;28;20035;-72
2024/02/13 09:41:14;;;;;;;36.05;33.15;;;6.80;99.90;;;;;;4958675;28;20051;-72
2024/02/13 09:43:42;;;;;;;41.72;32.85;;;6.90;99.90;;;;;;4941969;28;20547;-74
2024/02/13 09:46:16;;;;;;;34.10;31.23;;;6.90;99.90;;;;;;4931328;28;20516;-74
2024/02/13 09:48:48;;;;;;;36.70;33.33;;;6.90;99.90;;;;;;4921239;28;20885;-74
2024/02/13 09:51:18;;;;;;;31.38;29.23;;;6.70;99.90;;;;;;4937632;28;20058;-77
2024/02/13 09:53:49;;;;;;;47.92;33.47;;;6.70;99.90;;;;;;4945801;28;20038;-72
2024/02/13 09:56:17;;;;;;;35.35;32.67;;;6.70;99.90;;;;;;4946654;28;20133;-72
2024/02/13 09:58:46;;;;;;;28.55;26.40;;;6.70;99.90;;;;;;4944558;28;20070;-72
2024/02/13 10:01:14;;;;;;;33.63;31.17;;;6.80;99.90;;;;;;4937326;28;20140;-72
2024/02/13 10:03:41;;;;;;;32.40;29.85;;;7.00;99.90;;;;;;4931945;28;20054;-73
2024/02/13 10:06:10;;;;;;;32.28;29.80;;;7.00;99.90;;;;;;4923954;28;20051;-73
2024/02/13 10:08:37;;;;;;;36.90;32.72;;;7.10;99.90;;;;;;4948578;28;20059;-72
2024/02/13 10:11:11;;;;;;;27.13;25.13;;;7.10;99.90;;;;;;4930005;28;20039;-73
2024/02/13 10:13:39;;;;;;;29.37;26.53;;;6.90;99.90;;;;;;4926164;28;20055;-73
2024/02/13 10:16:31;;;;;;;46.78;28.88;;;6.90;99.90;;;;;;4922333;28;20061;-73
2024/02/13 10:19:01;;;;;;;29.00;26.50;;;7.00;99.90;;;;;;4946598;28;20094;-73
2024/02/13 10:21:29;;;;;;;28.48;26.50;;;6.80;99.90;;;;;;4940392;28;20146;-76
2024/02/13 10:24:07;;;;;;;34.17;29.25;;;6.60;99.90;;;;;;4944741;28;20116;-77
2024/02/13 10:26:34;;;;;;;31.10;27.13;;;6.50;99.90;;;;;;4947413;28;20047;-76
2024/02/13 10:29:03;;;;;;;27.10;25.10;;;6.50;99.90;;;;;;4968760;28;20118;-76
2024/02/13 10:31:36;;;;;;;25.35;23.48;;;6.50;99.90;;;;;;4950833;28;20059;-76
2024/02/13 10:34:08;;;;;;;26.92;24.55;;;6.50;99.90;;;;;;4948993;28;20043;-76
2024/02/13 10:36:36;;;;;;;26.10;23.95;;;6.50;99.90;;;;;;4950216;28;20061;-78
2024/02/13 10:39:07;;;;;;;26.27;24.35;;;6.50;99.90;;;;;;4953442;28;20580;-75
2024/02/13 10:41:40;;;;;;;26.33;24.63;;;6.70;99.90;;;;;;4963452;28;20061;-76
2024/02/13 10:44:11;;;;;;;27.13;25.00;;;6.80;99.90;;;;;;4957938;28;20137;-74
2024/02/13 10:46:40;;;;;;;28.65;26.45;;;6.90;99.90;;;;;;4930199;28;20691;-72
2024/02/13 10:49:15;;;;;;;27.30;25.60;;;6.80;99.90;;;;;;4951447;28;20100;-73
2024/02/13 10:51:43;;;;;;;27.95;25.88;;;6.70;99.90;;;;;;4958355;28;20071;-72
2024/02/13 10:54:12;;;;;;;28.65;26.65;;;6.70;99.90;;;;;;4951027;28;20058;-72
2024/02/13 10:56:40;;;;;;;28.10;26.08;;;6.50;99.90;;;;;;4946869;28;20046;-72
2024/02/13 10:59:08;;;;;;;28.77;26.45;;;6.50;99.90;;;;;;4949685;28;20097;-72
2024/02/13 11:01:35;;;;;;;28.55;26.42;;;6.40;99.90;;;;;;4934591;28;20571;-75
2024/02/13 11:04:02;;;;;;;27.20;25.23;;;6.40;99.90;;;;;;4924367;28;20090;-74
2024/02/13 11:06:32;;;;;;;26.10;24.23;;;6.40;99.90;;;;;;4938859;28;20047;-72
2024/02/13 11:09:00;;;;;;;26.58;24.67;;;6.50;99.90;;;;;;4942923;28;20074;-72
2024/02/13 11:11:28;;;;;;;27.15;25.15;;;6.50;99.90;;;;;;4927995;28;20512;-72
2024/02/13 11:13:55;;;;;;;26.42;24.33;;;6.60;99.90;;;;;;4935685;28;20809;-73
2024/02/13 11:16:23;;;;;;;26.40;23.95;;;6.70;99.90;;;;;;4944783;28;20047;-75
2024/02/13 11:18:52;;;;;;;27.27;24.75;;;6.70;99.90;;;;;;4953323;28;20043;-74
2024/02/13 11:21:21;;;;;;;26.23;24.50;;;6.70;99.90;;;;;;4954343;28;20085;-72
2024/02/13 11:23:59;;;;;;;26.92;25.00;;;6.80;99.90;;;;;;4949295;28;20418;-72
2024/02/13 11:26:37;;;;;;;28.30;25.77;;;6.80;99.90;;;;;;4939356;28;20054;-72
2024/02/13 11:29:11;;;;;;;27.85;25.48;;;6.90;99.90;;;;;;4947957;28;20049;-75
2024/02/13 11:31:38;;;;;;;26.70;24.20;;;6.90;99.90;;;;;;4943621;28;20129;-72
2024/02/13 11:34:08;;;;;;;26.40;24.15;;;6.90;99.90;;;;;;4947894;28;20078;-72
2024/02/13 11:36:37;;;;;;;26.77;24.60;;;6.80;99.90;;;;;;4939031;28;20313;-75
2024/02/13 11:39:08;;;;;;;27.50;24.95;;;6.90;99.90;;;;;;4948330;28;20060;-72
2024/02/13 11:41:35;;;;;;;26.25;24.00;;;6.90;99.90;;;;;;4947115;28;20074;-74
2024/02/13 11:44:09;;;;;;;27.80;25.35;;;6.90;99.90;;;;;;4951276;28;20101;-72
2024/02/13 11:46:54;;;;;;;31.90;28.10;;;6.90;99.90;;;;;;4941327;28;20045;-73
2024/02/13 11:49:24;;;;;;;29.88;26.77;;;6.90;99.90;;;;;;4968564;28;20051;-72
2024/02/13 11:51:53;;;;;;;28.60;25.98;;;6.90;99.90;;;;;;4949105;28;20122;-73
2024/02/13 11:54:19;;;;;;;27.05;24.75;;;7.00;99.90;;;;;;4949011;28;20054;-75
2024/02/13 11:56:46;;;;;;;28.35;25.58;;;7.10;99.90;;;;;;4947151;28;20053;-73
2024/02/13 11:59:13;;;;;;;27.05;24.65;;;7.30;99.90;;;;;;4946451;28;20051;-73
2024/02/13 12:01:43;;;;;;;26.17;24.02;;;7.30;99.90;;;;;;4945283;28;20845;-72
2024/02/13 12:04:12;;;;;;;24.58;22.42;;;7.20;99.90;;;;;;4948223;28;20126;-72
2024/02/13 12:06:40;;;;;;;26.30;23.95;;;7.30;99.90;;;;;;4959224;28;20039;-72
2024/02/13 12:09:08;;;;;;;26.38;24.08;;;7.40;99.90;;;;;;4956565;28;20399;-75
2024/02/13 12:11:36;;;;;;;26.98;24.48;;;7.60;99.90;;;;;;4953876;28;20086;-72
2024/02/13 12:14:05;;;;;;;24.42;22.42;;;7.70;99.90;;;;;;4948530;28;20567;-72
2024/02/13 12:16:33;;;;;;;23.50;21.58;;;7.60;99.90;;;;;;4942925;28;20043;-74
2024/02/13 12:18:59;;;;;;;24.73;23.02;;;7.50;99.90;;;;;;4947843;28;20043;-74
2024/02/13 12:21:27;;;;;;;24.42;22.67;;;7.50;99.90;;;;;;4944329;28;20285;-74
2024/02/13 12:23:56;;;;;;;23.95;22.17;;;7.70;99.90;;;;;;4953810;28;20069;-72
2024/02/13 12:26:23;;;;;;;25.15;23.25;;;7.70;99.90;;;;;;4970888;28;20138;-74
2024/02/13 12:29:00;;;;;;;25.42;23.17;;;7.70;99.90;;;;;;4951391;28;20083;-72
2024/02/13 12:31:29;;;;;;;25.52;23.70;;;7.70;99.90;;;;;;4948512;28;20051;-73
2024/02/13 12:34:06;;;;;;;25.33;23.33;;;7.70;99.90;;;;;;4957382;28;20983;-72
2024/02/13 12:36:34;;;;;;;26.27;24.05;;;7.50;99.90;;;;;;4947717;28;20993;-73
2024/02/13 12:39:16;;;;;;;25.90;23.52;;;7.60;99.90;;;;;;4959049;28;20043;-72
2024/02/13 12:41:45;;;;;;;24.30;22.67;;;7.80;99.90;;;;;;4947039;28;20120;-73
2024/02/13 12:44:17;;;;;;;25.05;22.92;;;7.60;99.90;;;;;;4949721;28;20278;-73
2024/02/13 12:46:45;;;;;;;26.10;23.65;;;7.70;99.90;;;;;;4958411;28;20410;-72